createdAt,value
2018-01-22T00:00:45.272Z,3.70
2018-01-22T00:01:45.297Z,4.10
2018-01-22T00:02:45.324Z,3.70
2018-01-22T00:03:45.352Z,3.80
2018-01-22T00:04:45.377Z,3.50
2018-01-22T00:05:45.404Z,4.10
2018-01-22T00:06:45.430Z,4.00
2018-01-22T00:07:45.457Z,3.50
2018-01-22T00:08:45.489Z,3.40
2018-01-22T00:09:45.510Z,3.40
2018-01-22T00:10:45.536Z,3.20
2018-01-22T00:11:45.562Z,2.90
2018-01-22T00:12:45.590Z,3.60
2018-01-22T00:13:45.615Z,3.00
2018-01-22T00:14:45.642Z,3.00
2018-01-22T00:15:45.668Z,3.70
2018-01-22T00:16:45.696Z,3.60
2018-01-22T00:17:45.720Z,3.70
2018-01-22T00:18:45.748Z,3.20
2018-01-22T00:19:45.775Z,3.40
2018-01-22T00:20:45.800Z,3.50
2018-01-22T00:21:45.826Z,3.30
2018-01-22T00:22:45.852Z,3.70
2018-01-22T00:23:45.880Z,3.70
2018-01-22T00:24:45.907Z,4.20
2018-01-22T00:25:45.933Z,4.00
2018-01-22T00:26:45.960Z,4.10
2018-01-22T00:27:45.987Z,4.20
2018-01-22T00:28:46.013Z,3.60
2018-01-22T00:29:46.041Z,3.00
2018-01-22T00:30:46.066Z,3.60
2018-01-22T00:31:46.093Z,3.50
2018-01-22T00:32:46.120Z,3.80
2018-01-22T00:33:46.145Z,3.70
2018-01-22T00:34:46.172Z,3.60
2018-01-22T00:35:46.200Z,3.80
2018-01-22T00:36:46.226Z,3.20
2018-01-22T00:37:46.251Z,3.60
2018-01-22T00:38:46.280Z,3.70
2018-01-22T00:39:46.306Z,3.40
2018-01-22T00:40:46.331Z,4.10
2018-01-22T00:41:46.357Z,3.70
2018-01-22T00:42:46.384Z,3.10
2018-01-22T00:43:46.411Z,3.40
2018-01-22T00:44:46.438Z,3.70
2018-01-22T00:45:46.466Z,3.80
2018-01-22T00:46:46.495Z,3.60
2018-01-22T00:47:46.517Z,3.70
2018-01-22T00:48:46.544Z,3.60
2018-01-22T00:49:46.568Z,3.40
2018-01-22T00:50:46.596Z,4.40
2018-01-22T00:51:46.623Z,4.40
2018-01-22T00:52:46.650Z,4.20
2018-01-22T00:53:46.675Z,4.20
2018-01-22T00:54:46.702Z,3.60
2018-01-22T00:55:46.730Z,4.30
2018-01-22T00:56:46.756Z,3.50
2018-01-22T00:57:46.782Z,3.80
2018-01-22T00:58:46.809Z,3.60
2018-01-22T00:59:46.836Z,3.70
2018-01-22T01:00:46.863Z,3.60
2018-01-22T01:01:46.891Z,3.60
2018-01-22T01:02:46.915Z,3.50
2018-01-22T01:03:46.943Z,3.60
2018-01-22T01:04:46.970Z,3.70
2018-01-22T01:05:46.995Z,3.60
2018-01-22T01:06:47.022Z,3.60
2018-01-22T01:07:47.049Z,3.60
2018-01-22T01:08:47.077Z,3.80
2018-01-22T01:09:47.102Z,3.90
2018-01-22T01:10:47.129Z,4.10
2018-01-22T01:11:47.156Z,4.20
2018-01-22T01:12:47.182Z,5.00
2018-01-22T01:13:47.209Z,4.20
2018-01-22T01:14:47.236Z,4.10
2018-01-22T01:15:47.262Z,4.10
2018-01-22T01:16:47.290Z,4.50
2018-01-22T01:17:47.316Z,4.40
2018-01-22T01:18:47.341Z,3.80
2018-01-22T01:19:47.370Z,4.30
2018-01-22T01:20:47.403Z,4.20
2018-01-22T01:21:47.422Z,3.90
2018-01-22T01:22:47.448Z,4.40
2018-01-22T01:23:47.476Z,4.30
2018-01-22T01:24:47.508Z,3.60
2018-01-22T01:25:47.532Z,3.60
2018-01-22T01:26:47.556Z,4.00
2018-01-22T01:27:47.583Z,4.30
2018-01-22T01:28:47.610Z,4.10
2018-01-22T01:29:47.636Z,3.90
2018-01-22T01:30:47.661Z,3.50
2018-01-22T01:31:47.689Z,4.40
2018-01-22T01:32:47.717Z,4.70
2018-01-22T01:33:47.743Z,4.00
2018-01-22T01:34:47.770Z,4.30
2018-01-22T01:35:47.800Z,4.00
2018-01-22T01:36:47.824Z,4.50
2018-01-22T01:37:47.850Z,4.10
2018-01-22T01:38:47.878Z,4.60
2018-01-22T01:39:47.904Z,4.20
2018-01-22T01:40:47.934Z,4.60
2018-01-22T01:41:47.958Z,4.20
2018-01-22T01:42:47.984Z,4.50
2018-01-22T01:43:48.012Z,3.40
2018-01-22T01:44:48.039Z,3.50
2018-01-22T01:45:48.065Z,3.90
2018-01-22T01:46:48.092Z,4.30
2018-01-22T01:47:48.120Z,4.10
2018-01-22T01:48:48.147Z,4.00
2018-01-22T01:49:48.179Z,4.10
2018-01-22T01:50:48.200Z,4.30
2018-01-22T01:51:48.227Z,4.50
2018-01-22T01:52:48.254Z,3.70
2018-01-22T01:53:48.281Z,4.20
2018-01-22T01:54:48.308Z,4.20
2018-01-22T01:55:48.338Z,4.10
2018-01-22T01:56:48.362Z,4.90
2018-01-22T01:57:48.388Z,4.60
2018-01-22T01:58:48.416Z,4.70
2018-01-22T01:59:48.445Z,4.30
2018-01-22T02:00:48.473Z,4.60
2018-01-22T02:01:48.496Z,4.60
2018-01-22T02:02:48.523Z,4.20
2018-01-22T02:03:48.552Z,4.70
2018-01-22T02:04:48.580Z,3.80
2018-01-22T02:05:48.603Z,4.10
2018-01-22T02:06:48.631Z,3.40
2018-01-22T02:07:48.659Z,4.30
2018-01-22T02:08:48.686Z,3.90
2018-01-22T02:09:48.712Z,3.40
2018-01-22T02:10:48.740Z,3.20
2018-01-22T02:11:48.767Z,3.80
2018-01-22T02:12:48.794Z,4.00
2018-01-22T02:13:48.828Z,3.90
2018-01-22T02:14:48.849Z,3.90
2018-01-22T02:15:48.876Z,2.90
2018-01-22T02:16:48.904Z,3.30
2018-01-22T02:17:48.930Z,3.50
2018-01-22T02:18:48.960Z,3.60
2018-01-22T02:19:48.984Z,3.90
2018-01-22T02:20:49.012Z,3.80
2018-01-22T02:21:49.039Z,3.80
2018-01-22T02:22:49.066Z,3.10
2018-01-22T02:23:49.094Z,3.50
2018-01-22T02:24:49.120Z,3.10
2018-01-22T02:25:49.147Z,2.90
2018-01-22T02:26:49.175Z,3.00
2018-01-22T02:27:49.202Z,3.00
2018-01-22T02:28:49.233Z,2.60
2018-01-22T02:29:49.258Z,2.90
2018-01-22T02:30:49.284Z,3.10
2018-01-22T02:31:49.313Z,2.70
2018-01-22T02:32:49.339Z,3.00
2018-01-22T02:33:49.365Z,3.30
2018-01-22T02:34:49.393Z,3.80
2018-01-22T02:35:49.422Z,3.40
2018-01-22T02:36:49.449Z,3.30
2018-01-22T02:37:49.479Z,3.20
2018-01-22T02:38:49.502Z,3.10
2018-01-22T02:39:49.530Z,3.00
2018-01-22T02:40:49.557Z,2.80
2018-01-22T02:41:49.586Z,3.00
2018-01-22T02:42:49.612Z,3.30
2018-01-22T02:43:49.639Z,2.60
2018-01-22T02:44:49.667Z,3.10
2018-01-22T02:45:49.695Z,3.00
2018-01-22T02:46:49.721Z,2.70
2018-01-22T02:47:49.750Z,2.90
2018-01-22T02:48:49.778Z,3.00
2018-01-22T02:49:49.803Z,3.10
2018-01-22T02:50:49.830Z,3.40
2018-01-22T02:51:49.861Z,2.70
2018-01-22T02:52:49.887Z,2.50
2018-01-22T02:53:49.914Z,3.40
2018-01-22T02:54:49.940Z,2.60
2018-01-22T02:55:49.968Z,3.10
2018-01-22T02:56:49.997Z,2.40
2018-01-22T02:57:50.023Z,2.60
2018-01-22T02:58:50.052Z,2.40
2018-01-22T02:59:50.080Z,2.60
2018-01-22T03:00:50.108Z,3.10
2018-01-22T03:01:50.134Z,3.10
2018-01-22T03:02:50.162Z,2.50
2018-01-22T03:03:50.194Z,2.50
2018-01-22T03:04:50.219Z,2.50
2018-01-22T03:05:50.245Z,2.50
2018-01-22T03:06:50.273Z,2.70
2018-01-22T03:07:50.301Z,2.90
2018-01-22T03:08:50.328Z,3.40
2018-01-22T03:09:50.355Z,3.50
2018-01-22T03:10:50.383Z,3.30
2018-01-22T03:11:50.411Z,2.80
2018-01-22T03:12:50.439Z,3.40
2018-01-22T03:13:50.465Z,3.80
2018-01-22T03:14:50.494Z,3.70
2018-01-22T03:15:50.522Z,3.30
2018-01-22T03:16:50.549Z,3.50
2018-01-22T03:17:50.577Z,3.70
2018-01-22T03:18:50.605Z,3.80
2018-01-22T03:19:50.633Z,4.00
2018-01-22T03:20:50.661Z,4.10
2018-01-22T03:21:50.687Z,3.20
2018-01-22T03:22:50.716Z,4.10
2018-01-22T03:23:50.744Z,3.30
2018-01-22T03:24:50.772Z,2.70
2018-01-22T03:25:50.802Z,3.00
2018-01-22T03:26:50.827Z,2.90
2018-01-22T03:27:50.858Z,2.80
2018-01-22T03:28:50.884Z,3.20
2018-01-22T03:29:50.911Z,3.30
2018-01-22T03:30:50.938Z,3.70
2018-01-22T03:31:50.966Z,3.30
2018-01-22T03:32:50.995Z,3.10
2018-01-22T03:33:51.022Z,2.60
2018-01-22T03:34:51.050Z,2.30
2018-01-22T03:35:51.078Z,3.20
2018-01-22T03:36:51.106Z,2.90
2018-01-22T03:37:51.133Z,2.50
2018-01-22T03:38:51.161Z,2.70
2018-01-22T03:39:51.188Z,2.80
2018-01-22T03:40:51.217Z,2.90
2018-01-22T03:41:51.243Z,3.30
2018-01-22T03:42:51.271Z,3.50
2018-01-22T03:43:51.301Z,3.60
2018-01-22T03:44:51.328Z,3.50
2018-01-22T03:45:51.356Z,3.50
2018-01-22T03:46:51.384Z,3.90
2018-01-22T03:47:51.412Z,2.60
2018-01-22T03:48:51.441Z,3.00
2018-01-22T03:49:51.470Z,2.70
2018-01-22T03:50:51.496Z,2.90
2018-01-22T03:51:51.524Z,2.60
2018-01-22T03:52:51.552Z,2.50
2018-01-22T03:53:51.579Z,2.80
2018-01-22T03:54:51.608Z,3.40
2018-01-22T03:55:51.641Z,3.10
2018-01-22T03:56:51.664Z,3.00
2018-01-22T03:57:51.690Z,2.20
2018-01-22T03:58:51.719Z,2.30
2018-01-22T03:59:51.749Z,2.30
2018-01-22T04:00:51.776Z,2.70
2018-01-22T04:01:51.803Z,2.50
2018-01-22T04:02:51.830Z,3.10
2018-01-22T04:03:51.859Z,2.90
2018-01-22T04:04:51.887Z,2.50
2018-01-22T04:05:51.915Z,2.80
2018-01-22T04:06:51.947Z,2.20
2018-01-22T04:07:51.985Z,2.50
2018-01-22T04:08:52.000Z,1.90
2018-01-22T04:09:52.028Z,2.60
2018-01-22T04:10:52.056Z,2.30
2018-01-22T04:11:52.084Z,2.20
2018-01-22T04:12:52.113Z,2.00
2018-01-22T04:13:52.140Z,2.00
2018-01-22T04:14:52.168Z,2.10
2018-01-22T04:15:52.196Z,2.20
2018-01-22T04:16:52.224Z,2.30
2018-01-22T04:17:52.250Z,2.20
2018-01-22T04:18:52.280Z,2.10
2018-01-22T04:19:52.307Z,2.30
2018-01-22T04:20:52.336Z,1.90
2018-01-22T04:21:52.363Z,2.10
2018-01-22T04:22:52.392Z,2.30
2018-01-22T04:23:52.421Z,2.30
2018-01-22T04:24:52.452Z,1.80
2018-01-22T04:25:52.476Z,1.70
2018-01-22T04:26:52.550Z,2.30
2018-01-22T04:27:52.534Z,2.10
2018-01-22T04:28:52.562Z,1.90
2018-01-22T04:29:52.589Z,2.50
2018-01-22T04:30:52.617Z,2.70
2018-01-22T04:31:52.646Z,2.50
2018-01-22T04:32:52.674Z,2.10
2018-01-22T04:33:52.702Z,1.70
2018-01-22T04:34:52.730Z,2.30
2018-01-22T04:35:52.757Z,2.50
2018-01-22T04:36:52.787Z,2.20
2018-01-22T04:37:52.814Z,1.90
2018-01-22T04:38:52.843Z,1.80
2018-01-22T04:39:52.875Z,2.00
2018-01-22T04:40:52.899Z,1.90
2018-01-22T04:41:52.928Z,2.00
2018-01-22T04:42:52.957Z,2.00
2018-01-22T04:43:52.985Z,2.40
2018-01-22T04:44:53.013Z,2.10
2018-01-22T04:45:53.041Z,1.80
2018-01-22T04:46:53.069Z,2.20
2018-01-22T04:47:53.097Z,2.40
2018-01-22T04:48:53.126Z,2.20
2018-01-22T04:49:53.154Z,2.50
2018-01-22T04:50:53.182Z,2.40
2018-01-22T04:51:53.210Z,2.90
2018-01-22T04:52:53.238Z,3.10
2018-01-22T04:53:53.266Z,2.60
2018-01-22T04:54:53.294Z,2.00
2018-01-22T04:55:53.323Z,1.60
2018-01-22T04:56:53.351Z,1.50
2018-01-22T04:57:53.381Z,1.40
2018-01-22T04:58:53.409Z,1.90
2018-01-22T04:59:53.437Z,1.80
2018-01-22T05:00:53.465Z,2.20
2018-01-22T05:01:53.496Z,1.90
2018-01-22T05:02:53.521Z,1.70
2018-01-22T05:03:53.550Z,2.30
2018-01-22T05:04:53.578Z,1.60
2018-01-22T05:05:53.606Z,1.50
2018-01-22T05:06:53.634Z,1.60
2018-01-22T05:07:53.663Z,1.60
2018-01-22T05:08:53.692Z,2.20
2018-01-22T05:09:53.720Z,1.90
2018-01-22T05:10:53.748Z,2.20
2018-01-22T05:11:53.777Z,2.00
2018-01-22T05:12:53.816Z,2.40
2018-01-22T05:13:53.833Z,2.20
2018-01-22T05:14:53.861Z,2.70
2018-01-22T05:15:53.890Z,4.40
2018-01-22T05:16:53.919Z,3.40
2018-01-22T05:17:53.947Z,2.60
2018-01-22T05:18:53.974Z,4.20
2018-01-22T05:19:54.004Z,3.50
2018-01-22T05:20:54.032Z,3.70
2018-01-22T05:21:54.060Z,4.10
2018-01-22T05:22:54.088Z,4.20
2018-01-22T05:23:54.120Z,5.10
2018-01-22T05:24:54.147Z,3.00
2018-01-22T05:25:54.174Z,2.40
2018-01-22T05:26:54.204Z,2.30
2018-01-22T05:27:54.230Z,2.70
2018-01-22T05:28:54.260Z,2.70
2018-01-22T05:29:54.288Z,3.00
2018-01-22T05:30:54.316Z,2.90
2018-01-22T05:31:54.344Z,3.00
2018-01-22T05:32:54.376Z,2.90
2018-01-22T05:33:54.399Z,3.10
2018-01-22T05:34:54.430Z,3.10
2018-01-22T05:35:54.459Z,2.90
2018-01-22T05:36:54.488Z,4.00
2018-01-22T05:37:54.516Z,3.60
2018-01-22T05:38:54.544Z,5.50
2018-01-22T05:39:54.573Z,4.80
2018-01-22T05:40:54.601Z,3.60
2018-01-22T05:41:54.630Z,2.10
2018-01-22T05:42:54.659Z,5.00
2018-01-22T05:43:54.690Z,9.20
2018-01-22T05:44:54.715Z,9.90
2018-01-22T05:45:54.743Z,6.20
2018-01-22T05:46:54.772Z,4.70
2018-01-22T05:47:54.802Z,6.90
2018-01-22T05:48:54.831Z,6.30
2018-01-22T05:49:54.858Z,6.00
2018-01-22T05:50:54.887Z,6.70
2018-01-22T05:51:54.915Z,7.50
2018-01-22T05:52:54.945Z,6.80
2018-01-22T05:53:54.972Z,6.90
2018-01-22T05:54:55.001Z,13.60
2018-01-22T05:55:55.030Z,13.70
2018-01-22T05:56:55.059Z,8.50
2018-01-22T05:57:55.086Z,6.10
2018-01-22T05:58:55.115Z,6.70
2018-01-22T05:59:55.145Z,3.00
2018-01-22T06:00:55.180Z,2.80
2018-01-22T06:01:55.200Z,2.80
2018-01-22T06:02:55.230Z,2.00
2018-01-22T06:03:55.259Z,2.70
2018-01-22T06:04:55.290Z,3.70
2018-01-22T06:05:55.316Z,4.50
2018-01-22T06:06:55.344Z,4.50
2018-01-22T06:07:55.375Z,6.50
2018-01-22T06:08:55.403Z,4.80
2018-01-22T06:09:55.458Z,4.20
2018-01-22T06:10:55.460Z,3.40
2018-01-22T06:11:55.489Z,3.10
2018-01-22T06:12:55.519Z,2.50
2018-01-22T06:13:55.546Z,3.20
2018-01-22T06:14:55.575Z,2.90
2018-01-22T06:15:55.603Z,2.60
2018-01-22T06:16:55.634Z,2.30
2018-01-22T06:17:55.661Z,2.80
2018-01-22T06:18:55.690Z,2.50
2018-01-22T06:19:55.723Z,2.40
2018-01-22T06:20:55.749Z,4.50
2018-01-22T06:21:55.777Z,3.90
2018-01-22T06:22:55.806Z,4.40
2018-01-22T06:23:55.835Z,4.70
2018-01-22T06:24:55.865Z,5.40
2018-01-22T06:25:55.906Z,6.10
2018-01-22T06:26:55.922Z,5.00
2018-01-22T06:27:55.952Z,4.80
2018-01-22T06:28:55.981Z,4.40
2018-01-22T06:29:56.009Z,2.90
2018-01-22T06:30:56.039Z,3.70
2018-01-22T06:31:56.067Z,3.20
2018-01-22T06:32:56.097Z,3.40
2018-01-22T06:33:56.125Z,2.80
2018-01-22T06:34:56.154Z,3.30
2018-01-22T06:35:56.188Z,4.40
2018-01-22T06:36:56.214Z,3.90
2018-01-22T06:37:56.246Z,3.70
2018-01-22T06:38:56.271Z,3.30
2018-01-22T06:39:56.301Z,3.70
2018-01-22T06:40:56.330Z,2.90
2018-01-22T06:41:56.357Z,2.60
2018-01-22T06:42:56.388Z,3.30
2018-01-22T06:43:56.417Z,3.00
2018-01-22T06:44:56.447Z,2.40
2018-01-22T06:45:56.478Z,2.20
2018-01-22T06:46:56.505Z,2.20
2018-01-22T06:47:56.533Z,2.30
2018-01-22T06:48:56.564Z,2.00
2018-01-22T06:49:56.591Z,2.50
2018-01-22T06:50:56.622Z,2.40
2018-01-22T06:51:56.650Z,1.70
2018-01-22T06:52:56.681Z,1.90
2018-01-22T06:53:56.710Z,3.90
2018-01-22T06:54:56.739Z,4.30
2018-01-22T06:55:56.768Z,1.60
2018-01-22T06:56:56.797Z,2.10
2018-01-22T06:57:56.825Z,2.60
2018-01-22T06:58:56.855Z,2.50
2018-01-22T06:59:56.885Z,2.50
2018-01-22T07:00:56.915Z,1.40
2018-01-22T07:01:56.945Z,1.70
2018-01-22T07:02:56.973Z,2.10
2018-01-22T07:03:57.003Z,2.00
2018-01-22T07:04:57.037Z,2.40
2018-01-22T07:05:57.060Z,2.40
2018-01-22T07:06:57.090Z,1.70
2018-01-22T07:07:57.119Z,1.80
2018-01-22T07:08:57.149Z,1.20
2018-01-22T07:09:57.178Z,1.40
2018-01-22T07:10:57.208Z,2.50
2018-01-22T07:11:57.238Z,1.50
2018-01-22T07:12:57.267Z,1.50
2018-01-22T07:13:57.296Z,1.20
2018-01-22T07:14:57.326Z,1.70
2018-01-22T07:15:57.356Z,2.50
2018-01-22T07:16:57.386Z,2.50
2018-01-22T07:17:57.415Z,2.00
2018-01-22T07:18:57.444Z,3.00
2018-01-22T07:19:57.473Z,2.00
2018-01-22T07:20:57.504Z,2.10
2018-01-22T07:21:57.533Z,2.40
2018-01-22T07:22:57.564Z,1.80
2018-01-22T07:23:57.594Z,1.90
2018-01-22T07:24:57.623Z,2.90
2018-01-22T07:25:57.652Z,2.50
2018-01-22T07:26:57.681Z,2.50
2018-01-22T07:27:57.711Z,2.40
2018-01-22T07:28:57.742Z,2.60
2018-01-22T07:29:57.770Z,2.10
2018-01-22T07:30:57.801Z,2.60
2018-01-22T07:31:57.831Z,2.30
2018-01-22T07:32:57.860Z,1.80
2018-01-22T07:33:57.890Z,2.20
2018-01-22T07:34:57.927Z,2.00
2018-01-22T07:35:57.950Z,2.20
2018-01-22T07:36:57.980Z,2.00
2018-01-22T07:37:58.009Z,2.10
2018-01-22T07:38:58.039Z,2.20
2018-01-22T07:39:58.069Z,2.10
2018-01-22T07:40:58.099Z,1.90
2018-01-22T07:41:58.129Z,2.10
2018-01-22T07:42:58.159Z,2.60
2018-01-22T07:43:58.188Z,2.30
2018-01-22T07:44:58.218Z,1.90
2018-01-22T07:45:58.246Z,1.70
2018-01-22T07:46:58.329Z,1.00
2018-01-22T07:47:58.308Z,1.20
2018-01-22T07:48:58.337Z,1.20
2018-01-22T07:49:58.367Z,1.20
2018-01-22T07:50:58.397Z,1.80
2018-01-22T07:51:58.428Z,1.40
2018-01-22T07:52:58.458Z,1.30
2018-01-22T07:53:58.492Z,1.50
2018-01-22T07:54:58.517Z,2.10
2018-01-22T07:55:58.547Z,2.70
2018-01-22T07:56:58.583Z,2.40
2018-01-22T07:57:58.606Z,1.90
2018-01-22T07:58:58.638Z,1.90
2018-01-22T07:59:58.669Z,1.60
2018-01-22T08:00:58.698Z,1.70
2018-01-22T08:01:58.728Z,1.40
2018-01-22T08:02:58.757Z,1.40
2018-01-22T08:03:58.789Z,1.40
2018-01-22T08:04:58.821Z,1.90
2018-01-22T08:05:58.849Z,1.70
2018-01-22T08:06:58.879Z,1.20
2018-01-22T08:07:58.910Z,1.50
2018-01-22T08:08:58.940Z,2.10
2018-01-22T08:09:58.970Z,2.00
2018-01-22T08:10:59.000Z,1.30
2018-01-22T08:11:59.031Z,1.30
2018-01-22T08:12:59.065Z,1.30
2018-01-22T08:13:59.091Z,1.30
2018-01-22T08:14:59.122Z,1.00
2018-01-22T08:15:59.153Z,1.20
2018-01-22T08:16:59.183Z,2.00
2018-01-22T08:17:59.212Z,2.50
2018-01-22T08:18:59.243Z,2.10
2018-01-22T08:19:59.272Z,1.40
2018-01-22T08:20:59.304Z,1.60
2018-01-22T08:21:59.334Z,1.40
2018-01-22T08:22:59.364Z,1.30
2018-01-22T08:23:59.395Z,1.30
2018-01-22T08:24:59.426Z,1.00
2018-01-22T08:25:59.455Z,1.40
2018-01-22T08:26:59.486Z,1.10
2018-01-22T08:27:59.516Z,1.20
2018-01-22T08:28:59.553Z,1.40
2018-01-22T08:29:59.577Z,1.00
2018-01-22T08:30:59.609Z,0.90
2018-01-22T08:31:59.639Z,0.80
2018-01-22T08:32:59.669Z,1.00
2018-01-22T08:33:59.699Z,1.20
2018-01-22T08:34:59.731Z,1.40
2018-01-22T08:35:59.761Z,1.50
2018-01-22T08:36:59.792Z,1.20
2018-01-22T08:37:59.821Z,1.10
2018-01-22T08:38:59.851Z,1.00
2018-01-22T08:39:59.886Z,0.90
2018-01-22T08:40:59.914Z,0.80
2018-01-22T08:41:59.953Z,0.80
2018-01-22T08:42:59.974Z,1.00
2018-01-22T08:44:00.015Z,0.90
2018-01-22T08:45:00.051Z,0.70
2018-01-22T08:46:00.066Z,0.80
2018-01-22T08:47:00.097Z,0.80
2018-01-22T08:48:00.128Z,0.90
2018-01-22T08:49:00.159Z,1.20
2018-01-22T08:50:00.188Z,1.00
2018-01-22T08:51:00.220Z,0.90
2018-01-22T08:52:00.252Z,1.10
2018-01-22T08:53:00.282Z,1.10
2018-01-22T08:54:00.312Z,1.00
2018-01-22T08:55:00.342Z,1.10
2018-01-22T08:56:00.374Z,0.90
2018-01-22T08:57:00.405Z,1.70
2018-01-22T08:58:00.434Z,1.30
2018-01-22T08:59:00.465Z,1.70
2018-01-22T09:00:00.498Z,1.90
2018-01-22T09:01:00.529Z,1.90
2018-01-22T09:02:00.558Z,1.70
2018-01-22T09:03:00.589Z,1.30
2018-01-22T09:04:00.621Z,0.90
2018-01-22T09:05:00.652Z,1.00
2018-01-22T09:06:00.682Z,0.90
2018-01-22T09:07:00.713Z,0.90
2018-01-22T09:08:00.743Z,0.90
2018-01-22T09:09:00.775Z,0.80
2018-01-22T09:10:00.804Z,1.10
2018-01-22T09:11:00.836Z,1.10
2018-01-22T09:12:00.866Z,0.90
2018-01-22T09:13:00.899Z,1.30
2018-01-22T09:14:00.928Z,1.00
2018-01-22T09:15:00.962Z,0.90
2018-01-22T09:16:00.992Z,1.00
2018-01-22T09:17:01.023Z,1.10
2018-01-22T09:18:01.052Z,0.80
2018-01-22T09:19:01.084Z,0.90
2018-01-22T09:20:01.119Z,1.00
2018-01-22T09:21:01.146Z,1.00
2018-01-22T09:22:01.177Z,1.50
2018-01-22T09:23:01.208Z,2.30
2018-01-22T09:24:01.239Z,2.30
2018-01-22T09:25:01.270Z,1.90
2018-01-22T09:26:01.301Z,1.60
2018-01-22T09:27:01.333Z,1.40
2018-01-22T09:28:01.363Z,1.00
2018-01-22T09:29:01.394Z,1.00
2018-01-22T09:30:01.425Z,1.20
2018-01-22T09:31:01.456Z,1.30
2018-01-22T09:32:01.487Z,1.30
2018-01-22T09:33:01.519Z,1.30
2018-01-22T09:34:01.548Z,1.30
2018-01-22T09:35:01.581Z,1.10
2018-01-22T09:36:01.612Z,1.40
2018-01-22T09:37:01.643Z,1.00
2018-01-22T09:38:01.673Z,1.00
2018-01-22T09:39:01.704Z,1.00
2018-01-22T09:40:01.736Z,1.10
2018-01-22T09:41:01.767Z,0.90
2018-01-22T09:42:01.797Z,1.00
2018-01-22T09:43:01.833Z,1.00
2018-01-22T09:44:01.861Z,0.90
2018-01-22T09:45:01.892Z,2.40
2018-01-22T09:46:01.921Z,5.30
2018-01-22T09:47:01.954Z,4.60
2018-01-22T09:48:01.985Z,2.90
2018-01-22T09:49:02.034Z,2.20
2018-01-22T09:50:02.046Z,2.20
2018-01-22T09:51:02.078Z,2.10
2018-01-22T09:52:02.107Z,0.90
2018-01-22T09:53:02.141Z,0.90
2018-01-22T09:54:02.176Z,1.00
2018-01-22T09:55:02.201Z,1.00
2018-01-22T09:56:02.232Z,0.80
2018-01-22T09:57:02.264Z,0.90
2018-01-22T09:58:02.293Z,0.70
2018-01-22T09:59:02.329Z,0.70
2018-01-22T10:00:02.376Z,0.80
2018-01-22T10:01:02.396Z,0.80
2018-01-22T10:02:02.417Z,0.80
2018-01-22T10:03:02.647Z,0.80
2018-01-22T10:04:02.486Z,0.70
2018-01-22T10:05:02.531Z,0.70
2018-01-22T10:06:02.545Z,0.80
2018-01-22T10:07:02.573Z,0.70
2018-01-22T10:08:02.604Z,0.70
2018-01-22T10:09:02.685Z,0.90
2018-01-22T10:10:02.670Z,0.80
2018-01-22T10:11:02.695Z,0.80
2018-01-22T10:12:02.728Z,1.10
2018-01-22T10:13:02.760Z,1.00
2018-01-22T10:14:02.812Z,0.80
2018-01-22T10:15:02.825Z,0.70
2018-01-22T10:16:02.853Z,0.70
2018-01-22T10:17:02.885Z,1.00
2018-01-22T10:18:02.915Z,1.10
2018-01-22T10:19:02.947Z,1.30
2018-01-22T10:20:02.984Z,0.90
2018-01-22T10:21:03.008Z,0.90
2018-01-22T10:22:03.040Z,0.70
2018-01-22T10:23:03.071Z,0.70
2018-01-22T10:24:03.152Z,0.80
2018-01-22T10:25:03.134Z,0.80
2018-01-22T10:26:03.164Z,1.00
2018-01-22T10:27:03.196Z,0.90
2018-01-22T10:28:03.227Z,0.90
2018-01-22T10:29:03.259Z,0.80
2018-01-22T10:30:03.346Z,0.80
2018-01-22T10:31:03.321Z,1.10
2018-01-22T10:32:03.353Z,1.30
2018-01-22T10:33:03.384Z,1.50
2018-01-22T10:34:03.417Z,1.80
2018-01-22T10:35:03.447Z,1.50
2018-01-22T10:36:03.479Z,1.40
2018-01-22T10:37:03.511Z,1.30
2018-01-22T10:38:03.545Z,1.60
2018-01-22T10:39:03.573Z,3.70
2018-01-22T10:40:03.605Z,2.90
2018-01-22T10:41:03.640Z,2.40
2018-01-22T10:42:03.668Z,1.90
2018-01-22T10:43:03.700Z,1.00
2018-01-22T10:44:03.731Z,0.70
2018-01-22T10:45:03.763Z,0.90
2018-01-22T10:46:03.795Z,0.80
2018-01-22T10:47:03.827Z,0.80
2018-01-22T10:48:03.857Z,0.80
2018-01-22T10:49:03.888Z,0.90
2018-01-22T10:50:03.921Z,0.80
2018-01-22T10:51:03.952Z,0.80
2018-01-22T10:52:03.983Z,0.90
2018-01-22T10:53:04.016Z,0.80
2018-01-22T10:54:04.049Z,0.80
2018-01-22T10:55:04.079Z,0.80
2018-01-22T10:56:04.111Z,0.90
2018-01-22T10:57:04.142Z,0.80
2018-01-22T10:58:04.172Z,1.00
2018-01-22T10:59:04.205Z,1.00
2018-01-22T11:00:04.241Z,1.10
2018-01-22T11:01:04.270Z,1.20
2018-01-22T11:02:04.300Z,1.10
2018-01-22T11:03:04.332Z,1.00
2018-01-22T11:04:04.364Z,1.10
2018-01-22T11:05:04.400Z,1.40
2018-01-22T11:06:04.427Z,1.10
2018-01-22T11:07:04.458Z,1.10
2018-01-22T11:08:04.491Z,1.20
2018-01-22T11:09:04.523Z,1.00
2018-01-22T11:10:04.555Z,1.00
2018-01-22T11:11:04.587Z,0.90
2018-01-22T11:12:04.620Z,1.10
2018-01-22T11:13:04.653Z,0.90
2018-01-22T11:14:04.682Z,1.10
2018-01-22T11:15:04.713Z,1.00
2018-01-22T11:16:04.746Z,1.10
2018-01-22T11:17:04.784Z,1.10
2018-01-22T11:18:04.809Z,0.90
2018-01-22T11:19:04.843Z,1.50
2018-01-22T11:20:04.874Z,1.70
2018-01-22T11:21:04.952Z,1.60
2018-01-22T11:22:04.938Z,1.10
2018-01-22T11:23:04.969Z,1.20
2018-01-22T11:24:05.000Z,1.30
2018-01-22T11:25:05.033Z,0.80
2018-01-22T11:26:05.065Z,1.10
2018-01-22T11:27:05.101Z,0.90
2018-01-22T11:28:05.130Z,1.10
2018-01-22T11:29:05.162Z,1.20
2018-01-22T11:30:05.193Z,1.00
2018-01-22T11:31:05.226Z,1.30
2018-01-22T11:32:05.258Z,1.20
2018-01-22T11:33:05.291Z,1.40
2018-01-22T11:34:05.322Z,2.40
2018-01-22T11:35:05.355Z,2.80
2018-01-22T11:36:05.391Z,2.70
2018-01-22T11:37:05.420Z,1.60
2018-01-22T11:38:05.451Z,1.00
2018-01-22T11:39:05.484Z,1.10
2018-01-22T11:40:05.516Z,1.30
2018-01-22T11:41:05.549Z,1.20
2018-01-22T11:42:05.581Z,1.30
2018-01-22T11:43:05.614Z,1.20
2018-01-22T11:44:05.646Z,1.50
2018-01-22T11:45:05.679Z,1.70
2018-01-22T11:46:05.711Z,1.30
2018-01-22T11:47:05.743Z,1.80
2018-01-22T11:48:05.775Z,1.70
2018-01-22T11:49:05.809Z,1.50
2018-01-22T11:50:05.841Z,1.40
2018-01-22T11:51:05.876Z,1.50
2018-01-22T11:52:05.906Z,2.10
2018-01-22T11:53:05.939Z,2.90
2018-01-22T11:54:05.970Z,3.40
2018-01-22T11:55:06.006Z,2.70
2018-01-22T11:56:06.037Z,1.60
2018-01-22T11:57:06.069Z,1.50
2018-01-22T11:58:06.102Z,1.60
2018-01-22T11:59:06.135Z,1.60
2018-01-22T12:00:06.167Z,1.90
2018-01-22T12:01:06.210Z,1.90
2018-01-22T12:02:06.233Z,1.40
2018-01-22T12:03:06.265Z,1.90
2018-01-22T12:04:06.300Z,2.00
2018-01-22T12:05:06.333Z,2.60
2018-01-22T12:06:06.364Z,5.70
2018-01-22T12:07:06.398Z,2.90
2018-01-22T12:08:06.430Z,5.40
2018-01-22T12:09:06.506Z,7.70
2018-01-22T12:10:06.496Z,7.90
2018-01-22T12:11:06.529Z,3.80
2018-01-22T12:12:06.609Z,2.00
2018-01-22T12:13:06.596Z,1.90
2018-01-22T12:14:06.627Z,2.20
2018-01-22T12:15:06.659Z,2.10
2018-01-22T12:16:06.693Z,2.40
2018-01-22T12:17:06.725Z,2.90
2018-01-22T12:18:06.757Z,2.60
2018-01-22T12:19:06.791Z,3.60
2018-01-22T12:20:06.824Z,3.40
2018-01-22T12:21:06.857Z,3.00
2018-01-22T12:22:06.889Z,2.80
2018-01-22T12:23:06.958Z,2.80
2018-01-22T12:24:06.956Z,2.40
2018-01-22T12:25:06.989Z,3.10
2018-01-22T12:26:07.021Z,2.90
2018-01-22T12:27:07.054Z,2.40
2018-01-22T12:28:07.087Z,2.00
2018-01-22T12:29:07.120Z,1.70
2018-01-22T12:30:07.153Z,1.50
2018-01-22T12:31:07.184Z,1.20
2018-01-22T12:32:07.219Z,1.70
2018-01-22T12:33:07.252Z,1.50
2018-01-22T12:34:07.282Z,1.40
2018-01-22T12:35:07.317Z,1.00
2018-01-22T12:36:07.350Z,1.00
2018-01-22T12:37:07.383Z,1.00
2018-01-22T12:38:07.415Z,1.30
2018-01-22T12:39:07.448Z,1.20
2018-01-22T12:40:07.480Z,1.70
2018-01-22T12:41:07.513Z,1.80
2018-01-22T12:42:07.545Z,1.50
2018-01-22T12:43:07.578Z,1.00
2018-01-22T12:44:07.613Z,1.70
2018-01-22T12:45:07.644Z,1.30
2018-01-22T12:46:07.678Z,0.90
2018-01-22T12:47:07.708Z,1.10
2018-01-22T12:48:07.742Z,1.10
2018-01-22T12:49:07.775Z,1.00
2018-01-22T12:50:07.807Z,1.10
2018-01-22T12:51:07.840Z,1.10
2018-01-22T12:52:07.872Z,1.10
2018-01-22T12:53:07.905Z,1.40
2018-01-22T12:54:07.943Z,1.30
2018-01-22T12:55:07.971Z,1.00
2018-01-22T12:56:08.003Z,0.90
2018-01-22T12:57:08.035Z,0.80
2018-01-22T12:58:08.069Z,0.90
2018-01-22T12:59:08.101Z,0.80
2018-01-22T13:00:08.134Z,1.10
2018-01-22T13:01:08.167Z,1.00
2018-01-22T13:02:08.199Z,1.30
2018-01-22T13:03:08.232Z,0.90
2018-01-22T13:04:08.265Z,1.10
2018-01-22T13:05:08.298Z,1.00
2018-01-22T13:06:08.330Z,0.90
2018-01-22T13:07:08.363Z,1.70
2018-01-22T13:08:08.395Z,1.30
2018-01-22T13:09:08.428Z,1.20
2018-01-22T13:10:08.460Z,1.00
2018-01-22T13:11:08.491Z,1.20
2018-01-22T13:12:08.524Z,1.10
2018-01-22T13:13:08.560Z,0.90
2018-01-22T13:14:08.590Z,1.40
2018-01-22T13:15:08.623Z,1.20
2018-01-22T13:16:08.657Z,1.00
2018-01-22T13:17:08.694Z,1.10
2018-01-22T13:18:08.720Z,0.90
2018-01-22T13:19:08.753Z,1.00